Terminal Aerodrome Forecast
Issued by NWS

Home | Current Version | Previous Version | Graphics & Text | Print | Product List | Glossary On
Versions: 1 2 3 4 5 6 7 8 9 10 11 12 13 14
474
FTUS43 KTOP 091132
TAFMHK
TAF
KMHK 091132Z 0912/1012 13003KT P6SM BKN120
     FM091600 16008KT P6SM BKN070
     FM100000 14005KT P6SM SCT070=

USA.gov is the U.S. government's official web portal to all federal, state and local government web resources and services.